Time;durP1;ratioP1;P1;durP2;ratioP2;P2;SDS_P1;SDS_P2;PMS_P1;PMS_P2;Temp;Humidity;BMP_temperature;BMP_pressure;BME280_temperature;BME280_humidity;BME280_pressure;Samples;Min_cycle;Max_cycle;Signal;HPM_P1;HPM_P2
2021/08/31 11:13:18;;;;;;;7.13;6.53;;;19.00;99.90;;;18.61;73.48;98485.34;5236890;27;20610;-59
2021/08/31 11:15:57;;;;;;;6.90;6.40;;;18.80;99.90;;;18.78;71.81;98494.63;5215379;28;20220;-58
2021/08/31 11:18:37;;;;;;;7.15;6.65;;;18.80;99.90;;;19.02;71.77;98494.56;5210966;28;20197;-59
2021/08/31 11:21:10;;;;;;;7.18;6.68;;;18.80;99.90;;;19.20;73.21;98491.75;5212493;28;20202;-59
2021/08/31 11:23:43;;;;;;;7.40;6.80;;;18.90;99.90;;;19.39;71.26;98479.34;5214482;28;20201;-58
2021/08/31 11:26:24;;;;;;;7.47;6.90;;;18.90;99.90;;;19.68;70.48;98485.50;5209429;28;20217;-60
2021/08/31 11:29:08;;;;;;;7.93;7.18;;;19.10;99.90;;;19.94;69.10;98486.28;5213363;28;20198;-55
2021/08/31 11:31:42;;;;;;;7.15;6.53;;;19.40;99.90;;;20.11;68.81;98484.19;5213941;28;20221;-56
2021/08/31 11:34:16;;;;;;;6.93;6.25;;;19.50;99.90;;;20.17;69.35;98485.28;5212181;28;20193;-56
2021/08/31 11:36:49;;;;;;;7.65;6.90;;;19.50;99.90;;;20.32;68.28;98483.97;5216216;28;20212;-56
2021/08/31 11:39:22;;;;;;;6.95;6.40;;;19.50;99.90;;;20.19;68.72;98491.38;5222351;28;20209;-58
2021/08/31 11:42:13;;;;;;;7.07;6.50;;;19.30;99.90;;;20.07;68.21;98485.84;5216189;28;20578;-60
2021/08/31 11:44:59;;;;;;;6.50;6.00;;;19.20;99.90;;;19.98;68.45;98493.34;5211801;28;20205;-59
2021/08/31 11:47:32;;;;;;;7.85;6.68;;;19.10;99.90;;;19.89;69.69;98501.75;5210538;28;20231;-60
2021/08/31 11:50:06;;;;;;;7.20;6.50;;;19.10;99.90;;;19.80;70.34;98498.84;5216947;28;20202;-57
2021/08/31 11:52:39;;;;;;;7.13;6.53;;;19.10;99.90;;;19.76;70.46;98503.06;5212669;28;20223;-55
2021/08/31 11:55:12;;;;;;;5.82;5.35;;;19.00;99.90;;;19.75;69.62;98501.31;5208954;28;20206;-57
2021/08/31 11:57:45;;;;;;;7.25;5.90;;;19.00;99.90;;;19.73;68.66;98500.38;5212209;28;20200;-57
2021/08/31 12:00:20;;;;;;;5.85;5.45;;;19.00;99.90;;;19.78;68.79;98511.78;5212921;28;20202;-56
2021/08/31 12:02:53;;;;;;;5.90;5.47;;;19.10;99.90;;;19.89;68.58;98508.66;5217015;28;20202;-57
2021/08/31 12:05:27;;;;;;;6.20;5.70;;;19.10;99.90;;;19.86;67.79;98519.81;5212089;28;20225;-55
2021/08/31 12:08:00;;;;;;;6.43;5.93;;;19.20;99.90;;;19.84;66.94;98512.81;5212813;28;20211;-56
2021/08/31 12:10:33;;;;;;;6.40;5.88;;;19.10;99.90;;;19.96;66.73;98514.06;5206915;28;20206;-57
2021/08/31 12:13:07;;;;;;;6.35;5.72;;;19.20;99.90;;;20.03;66.72;98521.22;5211795;28;20228;-56
2021/08/31 12:15:41;;;;;;;6.00;5.50;;;19.20;99.90;;;20.09;66.75;98523.09;5208815;28;20217;-57
2021/08/31 12:18:19;;;;;;;6.45;5.95;;;19.30;99.90;;;20.22;66.89;98519.16;5214305;28;20250;-57
2021/08/31 12:20:57;;;;;;;6.03;5.55;;;19.40;99.90;;;20.36;66.85;98517.84;5208184;28;20194;-54
2021/08/31 12:23:33;;;;;;;6.40;5.90;;;19.60;99.90;;;20.50;65.24;98519.97;5204635;28;20583;-52
2021/08/31 12:26:06;;;;;;;5.70;5.30;;;19.80;99.90;;;20.59;63.36;98515.91;5194897;28;20893;-55
2021/08/31 12:28:59;;;;;;;6.55;6.05;;;19.80;99.90;;;20.79;62.45;98518.19;5199971;28;20694;-57
2021/08/31 12:31:35;;;;;;;5.97;5.38;;;19.90;99.90;;;20.79;61.27;98518.19;5198054;28;20213;-57
2021/08/31 12:34:28;;;;;;;6.00;5.40;;;19.90;99.90;;;20.76;62.59;98520.72;5196730;28;20198;-57
2021/08/31 12:37:01;;;;;;;6.30;5.80;;;19.90;99.90;;;20.91;63.79;98515.91;5197965;28;20228;-57
2021/08/31 12:39:35;;;;;;;5.60;5.13;;;20.10;99.90;;;21.03;62.36;98510.16;5198543;28;20208;-57
2021/08/31 12:42:18;;;;;;;6.03;5.60;;;20.20;99.90;;;21.25;61.02;98522.00;5199503;28;21961;-56
2021/08/31 12:44:51;;;;;;;6.03;5.60;;;20.40;99.90;;;21.29;58.06;98513.44;5205363;28;20707;-53
2021/08/31 12:47:25;;;;;;;6.15;5.70;;;20.40;99.90;;;21.27;57.09;98520.34;5192646;28;20682;-54
2021/08/31 12:50:08;;;;;;;5.70;5.30;;;20.40;99.90;;;20.91;57.83;98518.50;5196765;28;20209;-57
2021/08/31 12:52:41;;;;;;;6.05;5.55;;;20.10;99.90;;;20.68;59.81;98510.97;5198272;28;20715;-58
2021/08/31 12:55:17;;;;;;;5.97;5.47;;;19.90;99.90;;;20.53;61.75;98518.34;5195037;28;20234;-56
2021/08/31 12:57:50;;;;;;;6.18;5.68;;;19.80;99.90;;;20.36;61.91;98516.97;5199332;28;20575;-56
2021/08/31 13:00:25;;;;;;;5.85;5.35;;;19.60;99.90;;;20.30;62.60;98517.66;5198270;28;20218;-56
2021/08/31 13:03:00;;;;;;;6.15;5.60;;;19.50;99.90;;;20.19;62.81;98517.34;5193781;28;20775;-57
2021/08/31 13:05:33;;;;;;;6.05;5.50;;;19.50;99.90;;;20.07;63.48;98529.09;5198416;28;20586;-58
2021/08/31 13:08:07;;;;;;;5.82;5.32;;;19.30;99.90;;;19.95;64.56;98524.41;5198523;28;20201;-57
2021/08/31 13:10:40;;;;;;;6.35;5.93;;;19.20;99.90;;;19.76;64.52;98525.53;5194488;28;20209;-58
2021/08/31 13:13:13;;;;;;;6.10;5.57;;;19.00;99.90;;;19.69;65.26;98524.47;5198122;28;20227;-58
2021/08/31 13:15:46;;;;;;;6.53;6.03;;;18.90;99.90;;;19.64;65.97;98518.22;5195272;28;20228;-58
2021/08/31 13:18:20;;;;;;;6.13;5.63;;;18.80;99.90;;;19.56;66.06;98519.69;5194466;28;20202;-58
2021/08/31 13:20:54;;;;;;;6.72;6.13;;;18.80;99.90;;;19.51;66.66;98523.81;5193024;28;20197;-58
2021/08/31 13:23:28;;;;;;;6.88;6.38;;;18.70;99.90;;;19.43;67.29;98523.59;5196919;28;20200;-58
2021/08/31 13:26:01;;;;;;;6.85;6.25;;;18.60;99.90;;;19.35;68.04;98531.13;5197479;28;20225;-58
2021/08/31 13:28:34;;;;;;;8.85;6.80;;;18.60;99.90;;;19.35;68.76;98517.28;5196138;28;20605;-58
2021/08/31 13:31:07;;;;;;;7.85;6.38;;;18.50;99.90;;;19.36;69.04;98519.91;5197482;28;20680;-57
2021/08/31 13:33:42;;;;;;;6.45;5.95;;;18.50;99.90;;;19.34;69.94;98518.09;5195838;28;20267;-58
2021/08/31 13:36:15;;;;;;;7.07;6.55;;;18.50;99.90;;;19.38;70.60;98513.91;5192144;28;20252;-57
2021/08/31 13:38:48;;;;;;;7.18;6.50;;;18.50;99.90;;;19.43;70.58;98508.03;5200584;28;20198;-58
2021/08/31 13:41:21;;;;;;;6.78;6.20;;;18.60;99.90;;;19.49;70.55;98507.38;5197279;28;20666;-58
2021/08/31 13:43:54;;;;;;;6.45;5.88;;;18.70;99.90;;;19.59;69.29;98509.41;5194539;28;20204;-58
2021/08/31 13:46:28;;;;;;;6.40;5.90;;;18.70;99.90;;;19.65;69.14;98504.44;5218530;22;20225;-60
2021/08/31 13:49:04;;;;;;;7.03;6.35;;;18.80;99.90;;;19.66;68.48;98506.22;5202269;28;20213;-60
2021/08/31 13:51:37;;;;;;;6.82;6.32;;;18.80;99.90;;;19.72;68.28;98514.19;5198663;28;20208;-58
2021/08/31 13:54:10;;;;;;;6.53;6.03;;;18.90;99.90;;;19.70;68.02;98513.25;5199039;28;20221;-60
2021/08/31 13:56:43;;;;;;;6.43;5.93;;;18.80;99.90;;;19.64;67.80;98513.03;5198100;28;20224;-61
2021/08/31 13:59:16;;;;;;;7.28;6.57;;;18.80;99.90;;;19.62;68.08;98513.81;5199497;28;20228;-60
2021/08/31 14:01:49;;;;;;;6.60;6.07;;;18.70;99.90;;;19.58;69.39;98507.66;5202695;28;20206;-61
2021/08/31 14:04:24;;;;;;;6.85;6.35;;;18.70;99.90;;;19.51;68.61;98516.91;5200848;28;20783;-59
2021/08/31 14:06:57;;;;;;;6.85;6.25;;;18.70;99.90;;;19.52;68.57;98507.47;5201272;28;20243;-61
2021/08/31 14:09:30;;;;;;;7.10;6.50;;;18.70;99.90;;;19.48;68.29;98511.63;5205688;28;20276;-60
2021/08/31 14:12:04;;;;;;;6.88;6.32;;;18.70;99.90;;;19.47;67.60;98514.19;5200981;28;20287;-60
2021/08/31 14:14:38;;;;;;;6.78;6.28;;;18.70;99.90;;;19.49;67.96;98508.25;5200179;28;20221;-60
2021/08/31 14:17:11;;;;;;;6.57;6.10;;;18.70;99.90;;;19.54;67.92;98514.47;5194992;28;20226;-61
2021/08/31 14:19:45;;;;;;;7.30;6.75;;;18.80;99.90;;;19.49;68.82;98518.59;5201150;28;20199;-61
2021/08/31 14:22:19;;;;;;;6.78;6.18;;;18.70;99.90;;;19.61;69.54;98512.94;5202363;28;20207;-61
2021/08/31 14:24:52;;;;;;;7.32;6.65;;;18.80;99.90;;;19.72;68.79;98506.41;5201017;28;20944;-61
2021/08/31 14:27:25;;;;;;;9.93;9.23;;;18.90;99.90;;;19.89;68.12;98506.94;5201889;28;20198;-61
2021/08/31 14:29:58;;;;;;;8.35;7.68;;;19.10;99.90;;;20.18;66.04;98505.19;5204209;28;20208;-61
2021/08/31 14:32:31;;;;;;;6.93;6.32;;;19.30;99.90;;;20.29;66.74;98504.63;5202952;28;20209;-61
2021/08/31 14:35:07;;;;;;;7.03;6.43;;;19.50;99.90;;;20.43;64.97;98504.19;5204594;28;20198;-61
2021/08/31 14:37:40;;;;;;;11.23;10.30;;;19.60;99.90;;;20.60;64.41;98503.81;5203591;28;20280;-59
2021/08/31 14:40:14;;;;;;;7.95;7.35;;;19.80;99.90;;;20.74;63.72;98502.47;5203937;28;20401;-60
2021/08/31 14:42:47;;;;;;;7.15;6.65;;;20.00;99.90;;;20.76;63.29;98502.53;5191379;28;20504;-59
2021/08/31 14:45:20;;;;;;;6.57;5.97;;;20.00;99.90;;;20.86;61.85;98512.31;5201842;28;20328;-60
2021/08/31 14:47:53;;;;;;;6.43;5.93;;;20.10;99.90;;;20.74;62.77;98514.59;5198514;28;22038;-60
2021/08/31 14:50:28;;;;;;;6.70;6.10;;;20.00;99.90;;;20.69;64.12;98517.94;5196983;28;20204;-60
2021/08/31 14:53:01;;;;;;;6.60;6.00;;;19.90;99.90;;;20.63;63.41;98512.59;5195063;28;20227;-58
2021/08/31 14:55:34;;;;;;;6.78;6.28;;;19.90;99.90;;;20.77;62.88;98504.28;5194585;28;20226;-58
2021/08/31 14:58:07;;;;;;;6.32;5.82;;;19.90;99.90;;;20.74;63.03;98509.38;5199014;28;20197;-57
2021/08/31 15:00:40;;;;;;;6.53;6.03;;;19.90;99.90;;;20.69;63.34;98511.88;5197078;28;20198;-59
2021/08/31 15:03:14;;;;;;;6.75;6.18;;;19.90;99.90;;;20.67;64.27;98509.22;5193909;28;20280;-60
2021/08/31 15:05:48;;;;;;;6.20;5.70;;;19.90;99.90;;;20.72;64.10;98505.84;5196526;28;20620;-61
2021/08/31 15:08:21;;;;;;;6.75;6.25;;;19.90;99.90;;;20.81;64.22;98508.72;5196268;28;20220;-61
2021/08/31 15:10:55;;;;;;;6.80;6.30;;;20.00;99.90;;;20.83;63.10;98502.75;5197534;28;20726;-59
2021/08/31 15:13:28;;;;;;;7.47;6.68;;;20.00;99.90;;;20.74;64.22;98499.88;5193318;28;20681;-59
2021/08/31 15:16:01;;;;;;;6.47;5.97;;;20.00;99.90;;;20.73;64.17;98502.44;5195715;28;21640;-57
2021/08/31 15:18:34;;;;;;;5.78;5.28;;;19.90;99.90;;;20.81;63.95;98500.94;5197012;28;20211;-60
2021/08/31 15:21:08;;;;;;;6.70;6.20;;;20.00;99.90;;;20.84;63.44;98491.50;5199335;28;20204;-60
2021/08/31 15:23:42;;;;;;;7.20;6.60;;;20.00;99.90;;;20.78;63.90;98495.66;5195300;28;20839;-60
2021/08/31 15:26:15;;;;;;;6.10;5.70;;;19.90;99.90;;;20.83;64.34;98499.25;5196852;28;20590;-59
2021/08/31 15:28:53;;;;;;;6.47;5.95;;;19.90;99.90;;;20.65;64.27;98504.81;5197541;28;20835;-60
2021/08/31 15:31:26;;;;;;;6.82;6.22;;;19.80;99.90;;;20.60;64.34;98504.72;5196260;28;20209;-61
2021/08/31 15:34:00;;;;;;;7.13;6.45;;;19.80;99.90;;;20.70;64.14;98503.22;5196241;28;20221;-61
2021/08/31 15:36:35;;;;;;;6.65;6.15;;;19.90;99.90;;;20.60;64.91;98501.22;5192544;28;20230;-61
2021/08/31 15:39:09;;;;;;;6.28;5.72;;;19.70;99.90;;;20.57;63.64;98512.38;5195727;28;20197;-59
2021/08/31 15:41:42;;;;;;;6.63;6.13;;;19.80;99.90;;;20.47;63.86;98505.16;5194969;28;20220;-60
2021/08/31 15:44:15;;;;;;;6.75;6.25;;;19.60;99.90;;;20.31;65.05;98510.75;5194745;28;20209;-58
2021/08/31 15:46:48;;;;;;;6.60;6.10;;;19.50;99.90;;;20.24;66.60;98509.69;5192703;28;20228;-58
2021/08/31 15:49:21;;;;;;;6.90;6.30;;;19.40;99.90;;;20.24;66.87;98513.16;5198530;28;20555;-60
2021/08/31 15:51:56;;;;;;;6.85;6.35;;;19.50;99.90;;;20.23;67.75;98508.81;5194168;28;20198;-61
2021/08/31 15:54:29;;;;;;;6.70;6.10;;;19.40;99.90;;;20.20;68.01;98506.13;5194605;28;20224;-61
2021/08/31 15:57:02;;;;;;;7.22;6.63;;;19.40;99.90;;;20.14;66.65;98511.13;5193706;28;20229;-60
2021/08/31 15:59:38;;;;;;;6.53;5.93;;;19.40;99.90;;;20.13;64.31;98508.50;5200393;28;20220;-61
2021/08/31 16:02:12;;;;;;;7.00;6.38;;;19.40;99.90;;;20.12;65.03;98507.63;5199649;28;20205;-61
2021/08/31 16:04:48;;;;;;;6.25;5.78;;;19.40;99.90;;;20.09;65.03;98517.00;5197252;28;20190;-61
2021/08/31 16:07:22;;;;;;;6.70;6.20;;;19.30;99.90;;;20.11;66.01;98512.75;5198538;28;20612;-61
2021/08/31 16:09:55;;;;;;;6.53;6.03;;;19.40;99.90;;;20.10;66.30;98513.59;5196684;28;20661;-61
2021/08/31 16:12:28;;;;;;;6.38;5.88;;;19.30;99.90;;;20.07;65.54;98514.38;5198500;28;20658;-62
2021/08/31 16:15:02;;;;;;;6.72;6.22;;;19.30;99.90;;;20.08;65.44;98510.06;5195934;28;20224;-62
2021/08/31 16:17:35;;;;;;;6.57;6.07;;;19.30;99.90;;;19.95;66.13;98516.63;5197672;28;20205;-61
2021/08/31 16:20:10;;;;;;;6.38;5.88;;;19.20;99.90;;;19.88;67.17;98520.72;5197474;28;20202;-62
2021/08/31 16:22:44;;;;;;;6.95;6.40;;;19.10;99.90;;;19.84;68.17;98521.47;5195818;28;20193;-61
2021/08/31 16:25:17;;;;;;;7.35;6.75;;;19.00;99.90;;;19.83;68.93;98513.63;5196984;28;20223;-61
2021/08/31 16:27:51;;;;;;;6.30;5.90;;;19.00;99.90;;;19.83;69.02;98513.63;5204802;28;20205;-61
2021/08/31 16:30:24;;;;;;;6.65;6.15;;;19.00;99.90;;;19.87;69.72;98515.50;5197630;28;20685;-61
2021/08/31 16:32:57;;;;;;;6.82;6.32;;;19.00;99.90;;;19.87;69.51;98510.31;5201800;28;20208;-62
2021/08/31 16:35:30;;;;;;;7.05;6.38;;;19.00;99.90;;;19.85;69.90;98517.16;5197219;28;20222;-62
2021/08/31 16:38:05;;;;;;;7.30;6.70;;;19.00;99.90;;;19.84;70.10;98512.81;5197468;28;20301;-61
2021/08/31 16:40:38;;;;;;;7.20;6.57;;;19.00;99.90;;;19.86;70.48;98516.31;5198239;28;20296;-61
2021/08/31 16:43:12;;;;;;;7.13;6.55;;;19.00;99.90;;;19.88;71.44;98512.06;5196982;28;20201;-60
2021/08/31 16:45:45;;;;;;;6.85;6.25;;;19.00;99.90;;;20.08;70.24;98508.34;5197120;28;20233;-60
2021/08/31 16:48:18;;;;;;;6.95;6.45;;;19.20;99.90;;;20.02;70.17;98505.56;5196175;28;20204;-60
2021/08/31 16:50:52;;;;;;;6.65;6.25;;;19.20;99.90;;;19.91;70.76;98517.34;5194536;28;20670;-61
2021/08/31 16:53:27;;;;;;;7.20;6.60;;;19.10;99.90;;;19.89;70.79;98517.31;5201025;28;20202;-60
2021/08/31 16:56:01;;;;;;;7.78;7.07;;;19.00;99.90;;;19.84;71.14;98510.22;5201689;28;20229;-62
2021/08/31 16:58:34;;;;;;;8.00;7.30;;;19.00;99.90;;;19.84;70.77;98510.22;5199673;28;20201;-62
2021/08/31 17:01:07;;;;;;;7.72;7.10;;;19.00;99.90;;;19.70;71.89;98513.25;5197097;28;20202;-61
2021/08/31 17:03:40;;;;;;;7.68;6.97;;;18.90;99.90;;;19.67;72.40;98517.47;5199408;28;20225;-61
2021/08/31 17:06:13;;;;;;;7.45;6.78;;;18.80;99.90;;;19.64;71.66;98515.63;5207856;28;20225;-62
2021/08/31 17:08:48;;;;;;;7.75;7.05;;;18.80;99.90;;;19.57;72.19;98516.25;5205369;28;20193;-61
2021/08/31 17:11:21;;;;;;;8.30;7.65;;;18.70;99.90;;;19.48;72.68;98516.81;5204274;28;20211;-60
2021/08/31 17:13:54;;;;;;;7.90;7.20;;;18.70;99.90;;;19.44;73.05;98522.75;5211822;28;20201;-61
2021/08/31 17:16:27;;;;;;;7.80;7.20;;;18.60;99.90;;;19.40;73.65;98532.97;5206089;28;20874;-61
2021/08/31 17:19:00;;;;;;;7.35;6.75;;;18.60;99.90;;;19.38;74.18;98530.34;5200866;28;20203;-62
2021/08/31 17:21:33;;;;;;;8.25;7.55;;;18.50;99.90;;;19.36;74.46;98532.00;5198814;28;20296;-62
2021/08/31 17:24:07;;;;;;;8.07;7.35;;;18.50;99.90;;;19.30;74.88;98536.97;5203237;28;20202;-60
2021/08/31 17:26:41;;;;;;;8.57;7.88;;;18.50;99.90;;;19.22;75.31;98534.13;5202794;28;20225;-62
2021/08/31 17:29:14;;;;;;;8.35;7.55;;;18.40;99.90;;;19.23;75.28;98542.78;5204364;28;20307;-60
2021/08/31 17:31:47;;;;;;;8.05;7.43;;;18.40;99.90;;;19.20;75.58;98543.56;5195266;28;20649;-61
2021/08/31 17:34:20;;;;;;;7.93;7.32;;;18.30;99.90;;;19.12;76.00;98538.13;5203939;28;20201;-62
2021/08/31 17:36:54;;;;;;;8.50;7.78;;;18.30;99.90;;;19.08;76.67;98540.53;5205529;28;20226;-62
2021/08/31 17:39:28;;;;;;;8.20;7.55;;;18.30;99.90;;;19.00;76.92;98541.97;5201370;28;20220;-61
2021/08/31 17:42:01;;;;;;;8.43;7.72;;;18.10;99.90;;;18.92;76.92;98554.69;5204428;28;20201;-61
2021/08/31 17:44:35;;;;;;;7.88;7.18;;;18.10;99.90;;;18.83;77.42;98549.19;5199441;28;20199;-61
2021/08/31 17:47:08;;;;;;;8.27;7.60;;;18.00;99.90;;;18.74;77.93;98557.47;5215067;28;20321;-61
2021/08/31 17:49:41;;;;;;;8.45;7.75;;;17.90;99.90;;;18.63;78.20;98551.03;5205294;28;20202;-61
2021/08/31 17:52:18;;;;;;;9.10;8.40;;;17.80;99.90;;;18.59;78.44;98546.53;5206705;28;20220;-61
2021/08/31 17:54:58;;;;;;;9.38;8.65;;;17.70;99.90;;;18.48;79.05;98545.28;5221057;28;20218;-62
2021/08/31 17:57:31;;;;;;;9.20;8.40;;;17.60;99.90;;;18.35;79.69;98555.19;5196411;28;20204;-61
2021/08/31 18:00:05;;;;;;;8.45;7.72;;;17.50;99.90;;;18.29;80.11;98554.06;5202344;28;20206;-60
2021/08/31 18:02:38;;;;;;;8.13;7.53;;;17.40;99.90;;;18.19;80.29;98561.47;5203021;28;20201;-61
2021/08/31 18:05:12;;;;;;;8.57;7.88;;;17.30;99.90;;;18.09;80.22;98567.13;5207644;28;20222;-61
2021/08/31 18:07:45;;;;;;;8.85;8.05;;;17.20;99.90;;;18.01;80.61;98574.56;5200734;28;20198;-61
2021/08/31 18:10:20;;;;;;;8.75;8.10;;;17.10;99.90;;;17.90;81.84;98580.16;5207672;28;20288;-61
2021/08/31 18:12:53;;;;;;;8.02;7.43;;;17.00;99.90;;;17.79;81.98;98588.34;5208436;28;20312;-61
2021/08/31 18:15:26;;;;;;;8.02;7.40;;;16.90;99.90;;;17.73;81.96;98589.78;5207274;28;20233;-62
2021/08/31 18:17:59;;;;;;;8.30;7.70;;;16.80;99.90;;;17.66;82.74;98596.41;5198559;28;20304;-61
2021/08/31 18:20:32;;;;;;;8.57;7.93;;;16.80;99.90;;;17.61;83.30;98597.94;5198318;28;20677;-61
2021/08/31 18:23:05;;;;;;;8.60;7.90;;;16.70;99.90;;;17.53;83.59;98595.00;5212045;28;20205;-60
2021/08/31 18:25:40;;;;;;;9.13;8.20;;;16.60;99.90;;;17.46;83.83;98597.31;5218427;28;20590;-61
2021/08/31 18:28:13;;;;;;;9.73;8.80;;;16.50;99.90;;;17.41;84.50;98599.69;5214183;28;20208;-61
2021/08/31 18:30:48;;;;;;;9.85;9.00;;;16.50;99.90;;;17.34;85.28;98610.59;5210772;28;20208;-61
2021/08/31 18:33:23;;;;;;;10.48;9.52;;;16.40;99.90;;;17.25;85.67;98607.59;5201120;28;20193;-62
2021/08/31 18:35:56;;;;;;;10.13;9.32;;;16.40;99.90;;;17.19;85.83;98610.78;5203065;28;20221;-60
2021/08/31 18:38:29;;;;;;;9.00;8.30;;;16.30;99.90;;;17.14;85.82;98611.41;5198375;28;20661;-61
2021/08/31 18:41:05;;;;;;;9.00;8.30;;;16.30;99.90;;;17.10;86.33;98608.69;5202165;28;20210;-59
2021/08/31 18:43:38;;;;;;;9.50;8.60;;;16.20;99.90;;;17.02;86.64;98614.34;5203641;28;20206;-61
2021/08/31 18:46:11;;;;;;;9.30;8.40;;;16.10;99.90;;;16.96;87.28;98620.13;5207313;28;20442;-61
2021/08/31 18:48:45;;;;;;;9.63;8.73;;;16.00;99.90;;;16.89;87.80;98623.28;5201694;28;20213;-59
2021/08/31 18:51:18;;;;;;;10.00;9.10;;;16.00;99.90;;;16.80;88.28;98622.88;5199058;28;20201;-60
2021/08/31 18:53:51;;;;;;;10.52;9.63;;;15.90;99.90;;;16.75;88.78;98629.47;5201684;28;20194;-61
2021/08/31 18:56:25;;;;;;;11.25;10.25;;;15.80;99.90;;;16.72;89.17;98634.50;5203804;28;20222;-60
2021/08/31 18:58:58;;;;;;;10.75;9.70;;;15.80;99.90;;;16.63;89.68;98630.69;5203920;28;20203;-60
2021/08/31 19:01:32;;;;;;;10.50;9.50;;;15.80;99.90;;;16.54;89.96;98634.53;5199396;28;20202;-61
2021/08/31 19:04:06;;;;;;;10.40;8.88;;;15.60;99.90;;;16.46;90.57;98626.47;5201938;28;20763;-61
2021/08/31 19:06:39;;;;;;;9.57;8.77;;;15.50;99.90;;;16.34;90.73;98633.59;5204080;28;20218;-62
2021/08/31 19:09:12;;;;;;;9.38;8.60;;;15.50;99.90;;;16.33;90.54;98644.75;5198878;28;20672;-62
2021/08/31 19:11:46;;;;;;;9.88;8.98;;;15.40;99.90;;;16.28;90.40;98647.13;5203450;28;20208;-61
2021/08/31 19:14:19;;;;;;;9.73;8.77;;;15.40;99.90;;;16.25;90.73;98641.78;5204154;28;20296;-60
2021/08/31 19:16:52;;;;;;;10.65;9.65;;;15.30;99.90;;;16.20;90.53;98644.19;5199183;28;20226;-61
2021/08/31 19:19:25;;;;;;;10.32;9.43;;;15.30;99.90;;;16.13;90.97;98655.00;5189485;28;20570;-62
2021/08/31 19:21:58;;;;;;;10.93;9.93;;;15.20;99.90;;;16.06;90.89;98655.53;5188692;28;20219;-61
2021/08/31 19:24:31;;;;;;;10.30;9.50;;;15.20;99.90;;;16.04;91.39;98664.00;5197872;28;20204;-60
2021/08/31 19:27:06;;;;;;;10.30;9.40;;;15.10;99.90;;;15.92;91.26;98664.28;5204067;28;20225;-60
2021/08/31 19:29:40;;;;;;;10.15;9.32;;;15.00;99.90;;;15.85;92.31;98660.53;5203574;28;20263;-61
2021/08/31 19:32:13;;;;;;;10.23;9.07;;;15.00;99.90;;;15.83;92.10;98666.41;5200023;28;20198;-62
2021/08/31 19:34:46;;;;;;;10.05;9.30;;;15.00;99.90;;;15.79;92.36;98673.09;5205110;28;20198;-61
2021/08/31 19:37:19;;;;;;;9.70;8.77;;;14.90;99.90;;;15.74;92.40;98665.16;5193422;28;20248;-60
2021/08/31 19:39:52;;;;;;;8.95;8.13;;;14.90;99.90;;;15.71;92.22;98671.84;5190240;28;20199;-62
2021/08/31 19:42:27;;;;;;;9.27;8.57;;;14.80;99.90;;;15.70;92.19;98665.78;5192913;28;20201;-62
2021/08/31 19:45:00;;;;;;;9.25;8.50;;;14.80;99.90;;;15.64;91.89;98670.63;5202095;28;20202;-61
2021/08/31 19:47:35;;;;;;;9.38;8.60;;;14.80;99.90;;;15.62;92.00;98672.22;5198697;22;20230;-56
2021/08/31 19:50:09;;;;;;;9.27;8.50;;;14.70;99.90;;;15.56;92.16;98666.75;5188172;28;20553;-53
2021/08/31 19:52:42;;;;;;;10.05;9.25;;;14.70;99.90;;;15.53;92.97;98671.75;5187512;28;20205;-59
2021/08/31 19:55:15;;;;;;;10.18;9.25;;;14.70;99.90;;;15.49;93.32;98670.72;5187876;28;20211;-56
2021/08/31 19:57:50;;;;;;;10.07;9.27;;;14.60;99.90;;;15.49;92.65;98667.28;5178700;28;20313;-57
2021/08/31 20:00:23;;;;;;;10.43;9.48;;;14.60;99.90;;;15.46;92.79;98669.69;5177089;28;20202;-57
2021/08/31 20:02:56;;;;;;;9.80;9.00;;;14.60;99.90;;;15.46;92.52;98672.28;5179341;28;20674;-56
2021/08/31 20:05:29;;;;;;;9.73;9.00;;;14.60;99.90;;;15.40;92.78;98667.69;5178017;28;20586;-58
2021/08/31 20:08:03;;;;;;;9.20;8.40;;;14.60;99.90;;;15.40;92.81;98669.38;5181946;28;20209;-58
2021/08/31 20:10:36;;;;;;;8.88;8.25;;;14.50;99.90;;;15.35;93.03;98668.25;5177472;28;20213;-56
2021/08/31 20:13:10;;;;;;;8.95;8.25;;;14.50;99.90;;;15.30;93.41;98668.88;5174909;28;20199;-61
2021/08/31 20:15:43;;;;;;;9.85;8.95;;;14.40;99.90;;;15.30;92.72;98673.16;5177762;28;20596;-54
2021/08/31 20:18:16;;;;;;;9.02;8.27;;;14.40;99.90;;;15.20;93.27;98679.53;5175083;28;20209;-58
2021/08/31 20:20:50;;;;;;;9.52;8.80;;;14.40;99.90;;;15.15;93.26;98683.56;5174203;28;20203;-57
2021/08/31 20:23:23;;;;;;;11.85;10.68;;;14.30;99.90;;;15.17;93.21;98691.38;5182205;28;20589;-57
2021/08/31 20:25:57;;;;;;;12.65;11.38;;;14.30;99.90;;;15.10;93.69;98695.31;5184645;28;20668;-59
2021/08/31 20:28:32;;;;;;;12.48;11.27;;;14.20;99.90;;;15.03;93.97;98696.69;5183848;28;20199;-55
2021/08/31 20:31:05;;;;;;;11.52;10.38;;;14.20;99.90;;;14.96;94.83;98698.84;5187731;28;20204;-59
2021/08/31 20:33:38;;;;;;;11.48;10.38;;;14.20;99.90;;;14.97;94.23;98698.94;5186532;28;20230;-53
2021/08/31 20:36:11;;;;;;;10.57;9.63;;;14.10;99.90;;;14.92;93.98;98714.94;5186929;28;20230;-59
2021/08/31 20:38:44;;;;;;;9.95;9.00;;;14.10;99.90;;;14.85;93.44;98709.47;5185608;28;20222;-56
2021/08/31 20:41:17;;;;;;;8.93;7.90;;;14.00;99.90;;;14.82;93.06;98718.69;5187578;28;20202;-59
2021/08/31 20:43:51;;;;;;;9.38;8.50;;;14.00;99.90;;;14.77;93.30;98718.44;5186783;28;20209;-57
2021/08/31 20:46:25;;;;;;;9.55;8.73;;;13.90;99.90;;;14.77;93.60;98715.88;5186553;28;20217;-55
2021/08/31 20:48:58;;;;;;;9.55;8.75;;;13.90;99.90;;;14.73;93.48;98715.63;5186969;28;20207;-59
2021/08/31 20:51:31;;;;;;;9.70;8.80;;;13.80;99.90;;;14.62;94.11;98728.81;5187323;28;20678;-56
2021/08/31 20:54:05;;;;;;;10.38;9.43;;;13.80;99.90;;;14.60;95.49;98724.38;5185507;28;20213;-55
2021/08/31 20:56:38;;;;;;;10.35;9.45;;;13.80;99.90;;;14.56;94.89;98719.84;5186485;28;20682;-58
2021/08/31 20:59:12;;;;;;;10.88;9.98;;;13.80;99.90;;;14.52;95.32;98716.22;5185966;28;20201;-59
2021/08/31 21:01:45;;;;;;;10.75;9.65;;;13.70;99.90;;;14.48;95.14;98721.97;5186557;28;20212;-59
2021/08/31 21:04:19;;;;;;;10.07;9.27;;;13.70;99.90;;;14.46;94.67;98720.13;5185357;28;20585;-56
2021/08/31 21:06:52;;;;;;;10.48;9.50;;;13.70;99.90;;;14.44;94.84;98727.72;5178271;28;20215;-55
2021/08/31 21:09:25;;;;;;;10.45;9.65;;;13.60;99.90;;;14.41;94.82;98720.72;5176166;28;20690;-56
2021/08/31 21:11:58;;;;;;;9.38;8.57;;;13.60;99.90;;;14.35;94.31;98720.38;5187022;28;20206;-58
2021/08/31 21:14:32;;;;;;;9.77;8.98;;;13.60;99.90;;;14.34;94.68;98728.91;5185423;28;20301;-55
2021/08/31 21:17:07;;;;;;;9.95;9.05;;;13.50;99.90;;;14.30;95.14;98737.22;5186580;28;20226;-55
2021/08/31 21:19:40;;;;;;;9.45;8.65;;;13.60;99.90;;;14.27;95.86;98744.78;5186173;28;20206;-59
2021/08/31 21:22:13;;;;;;;10.27;9.40;;;13.50;99.90;;;14.28;95.14;98743.09;5186040;28;20303;-57
2021/08/31 21:24:47;;;;;;;10.13;9.38;;;13.50;99.90;;;14.26;94.78;98740.44;5185224;28;20204;-56
2021/08/31 21:27:20;;;;;;;9.98;8.98;;;13.50;99.90;;;14.26;94.94;98750.72;5184729;28;20218;-56
2021/08/31 21:29:54;;;;;;;9.60;8.73;;;13.40;99.90;;;14.19;95.42;98749.50;5185881;28;20217;-55
2021/08/31 21:32:27;;;;;;;9.05;8.30;;;13.40;99.90;;;14.14;95.93;98750.03;5186424;28;20204;-56
2021/08/31 21:35:00;;;;;;;10.15;9.25;;;13.30;99.90;;;14.11;95.98;98747.28;5185132;28;20206;-54
2021/08/31 21:37:34;;;;;;;9.85;9.00;;;13.30;99.90;;;14.08;95.63;98744.53;5185105;28;20325;-59
2021/08/31 21:40:10;;;;;;;10.00;9.20;;;13.30;99.90;;;14.04;96.58;98747.72;5181091;28;20203;-56
2021/08/31 21:42:43;;;;;;;8.98;8.20;;;13.30;99.90;;;14.02;96.61;98742.50;5185682;28;20199;-53
2021/08/31 21:45:17;;;;;;;10.25;9.35;;;13.20;99.90;;;14.02;96.49;98747.66;5186455;28;20207;-57
2021/08/31 21:47:50;;;;;;;9.13;8.23;;;13.20;99.90;;;14.00;96.54;98753.50;5185977;28;20232;-58
2021/08/31 21:50:24;;;;;;;10.15;9.25;;;13.20;99.90;;;14.02;95.59;98746.75;5185243;28;20212;-52
2021/08/31 21:52:57;;;;;;;10.32;9.52;;;13.20;99.90;;;14.03;95.25;98751.09;5184667;28;20281;-58
2021/08/31 21:55:30;;;;;;;10.77;9.70;;;13.20;99.90;;;14.02;96.36;98750.22;5184675;28;20202;-56
2021/08/31 21:58:03;;;;;;;10.18;9.25;;;13.20;99.90;;;14.02;95.93;98744.16;5180796;28;20233;-59